Stations météo

réclame
Mon MeteoGroup
Alto De Los Leones, Espagne (8217): Température de l'air & dewpoint: 08.08.2018 23:00:00 - 14.08.2018 23:00:00 (CEST)Alto De Los Leones, Espagne (8217): Vitesse du vent & gusts: 08.08.2018 23:00:00 - 14.08.2018 23:00:00 (CEST)Alto De Los Leones, Espagne (8217): Direction du vent: 08.08.2018 23:00:00 - 14.08.2018 23:00:00 (CEST)Alto De Los Leones, Espagne (8217): Quantités de précipitations: 08.08.2018 23:00:00 - 14.08.2018 23:00:00 (CEST)
Date & Time tt [°C] td [°C] ff [km/h] ff [knt] fx [km/h] fx [knt] dd rr [mm]
14.08.2018 23:00:00 16,5 -0,7 14 8 24 13 NNE 0,0
14.08.2018 22:00:00 18,2 -1,2 18 10 26 14 NNE 0,0
14.08.2018 21:00:00 20,8 0,0 19 10 30 16 NNE 0,0
14.08.2018 20:00:00 23,5 0,0 21 12 35 19 NNE -
14.08.2018 19:00:00 23,6 0,0 23 13 35 19 NNE 0,0
14.08.2018 18:00:00 25,5 2,3 19 10 33 18 NNE 0,0
14.08.2018 17:00:00 25,0 3,6 16 9 35 19 NNE 0,0
14.08.2018 16:00:00 24,1 3,4 19 10 33 18 NNE 0,0
14.08.2018 15:00:00 23,9 3,8 18 10 31 17 NNE 0,0
14.08.2018 14:00:00 22,9 3,4 18 10 32 18 NNE -
14.08.2018 13:00:00 21,0 4,1 18 10 29 16 NNE 0,0
14.08.2018 12:00:00 20,1 3,2 14 7 22 12 NNE 0,0
14.08.2018 11:00:00 20,3 3,0 8 4 15 8 NNE 0,0
14.08.2018 10:00:00 18,4 2,3 5 3 8 5 NNE 0,0
14.08.2018 09:00:00 15,6 1,7 8 5 18 10 NNE 0,0
14.08.2018 08:00:00 12,8 -0,5 16 8 19 11 NNE -
14.08.2018 07:00:00 13,5 -0,5 15 8 22 12 NNE 0,0
14.08.2018 06:00:00 14,3 -0,3 13 7 19 10 NNE 0,0
14.08.2018 05:00:00 14,8 -0,5 12 7 16 9 NNE 0,0
14.08.2018 04:00:00 15,1 -0,7 12 7 16 9 NNE 0,0
14.08.2018 03:00:00 15,2 -0,5 12 6 15 8 NNE 0,0
14.08.2018 02:00:00 15,3 -0,5 12 6 20 11 NNE -
14.08.2018 01:00:00 15,4 -0,7 15 8 28 15 NNE 0,0
14.08.2018 00:00:00 16,0 -0,7 20 11 28 15 NNE 0,0
13.08.2018 23:00:00 15,6 -2,0 19 11 29 16 NNE 0,0
13.08.2018 22:00:00 18,1 -2,2 21 12 35 19 NNE 0,0
13.08.2018 21:00:00 20,0 -2,5 23 12 39 21 NNE 0,0
13.08.2018 20:00:00 21,8 -2,7 27 14 41 22 NNE -
13.08.2018 19:00:00 23,5 -0,7 23 13 40 21 NNE 0,0
13.08.2018 18:00:00 23,8 0,9 23 13 46 25 NNE 0,0
13.08.2018 17:00:00 22,9 0,6 26 14 48 26 NNE 0,0
13.08.2018 16:00:00 22,9 3,4 24 13 41 22 NNE 0,0
13.08.2018 15:00:00 21,6 4,1 22 12 37 20 NNE 0,0
13.08.2018 14:00:00 21,3 7,8 21 12 37 20 NNE -
13.08.2018 13:00:00 18,7 7,4 20 11 32 17 NNE 0,0
13.08.2018 12:00:00 17,8 8,1 15 8 24 13 NNE 0,0
13.08.2018 11:00:00 17,5 8,7 10 6 16 9 NNE 0,0
13.08.2018 10:00:00 14,6 8,8 13 7 19 11 NNE 0,0
13.08.2018 09:00:00 12,5 8,0 14 8 18 10 NNE 0,0
13.08.2018 08:00:00 11,4 7,7 11 6 14 8 NNE -
13.08.2018 07:00:00 11,3 7,0 11 6 21 11 NNE 0,0
13.08.2018 06:00:00 11,9 5,9 17 9 29 15 NNE 0,0
13.08.2018 05:00:00 13,1 5,5 24 13 34 18 NNE 0,0
13.08.2018 04:00:00 14,6 4,3 24 13 33 18 NNE 0,0
13.08.2018 03:00:00 14,8 3,0 23 12 31 17 NNE 0,0
13.08.2018 02:00:00 15,8 2,3 22 12 41 22 NNE -
13.08.2018 01:00:00 16,5 1,1 25 14 35 19 NNE 0,0
13.08.2018 00:00:00 16,8 1,3 23 12 32 18 NNE 0,0
12.08.2018 23:00:00 17,9 1,5 24 13 41 22 NNE 0,0
12.08.2018 22:00:00 18,5 3,9 26 14 50 27 NNE 0,0
12.08.2018 21:00:00 19,8 4,3 15 8 21 11 NNE 0,0
12.08.2018 20:00:00 20,3 4,8 14 8 19 10 NNE -
12.08.2018 19:00:00 20,7 3,8 16 9 31 17 NNE 0,0
12.08.2018 18:00:00 21,8 3,4 17 9 35 19 NNE 0,0
12.08.2018 17:00:00 22,8 3,4 12 6 37 20 NNE 0,0
12.08.2018 16:00:00 26,4 4,1 14 8 36 19 NNE 0,0
12.08.2018 15:00:00 27,8 5,3 11 6 34 18 NNE 0,0
12.08.2018 14:00:00 26,3 7,8 6 3 22 12 NNE -
12.08.2018 13:00:00 22,6 8,3 11 6 22 12 NNE 0,0
12.08.2018 12:00:00 22,5 9,3 12 6 21 11 NNE 0,0
12.08.2018 11:00:00 21,2 9,2 13 7 20 11 NNE 0,0
12.08.2018 10:00:00 19,5 10,2 13 7 20 11 NNE 0,0
12.08.2018 09:00:00 17,8 10,4 13 7 20 11 NNE 0,0
12.08.2018 08:00:00 16,2 8,9 14 7 20 11 NNE -
12.08.2018 07:00:00 16,2 6,5 15 8 22 12 NNE 0,0
12.08.2018 06:00:00 17,5 2,3 12 6 19 10 NNE 0,0
12.08.2018 05:00:00 18,4 -0,5 10 6 16 9 NNE 0,0
12.08.2018 04:00:00 19,9 -0,3 6 3 10 5 NNE 0,0
12.08.2018 03:00:00 18,8 0,0 8 4 14 8 NNE 0,0
12.08.2018 02:00:00 18,8 -0,7 11 6 18 10 NNE -
12.08.2018 01:00:00 19,5 0,0 12 7 20 11 NNE 0,0
12.08.2018 00:00:00 21,0 0,2 8 4 18 10 NE 0,0
11.08.2018 23:00:00 21,8 0,9 11 6 18 10 NNE 0,0
11.08.2018 22:00:00 21,7 0,9 9 5 15 8 NNE 0,0
11.08.2018 21:00:00 22,7 1,1 8 4 21 11 NNE 0,0
11.08.2018 20:00:00 25,0 1,1 8 4 19 11 NNE -
11.08.2018 19:00:00 25,5 1,5 11 6 23 12 NNE 0,0
11.08.2018 18:00:00 25,3 2,1 9 5 22 12 NNE 0,0
11.08.2018 17:00:00 25,0 1,9 10 5 27 14 NNE 0,0
11.08.2018 16:00:00 23,4 1,7 10 6 27 15 NNE 0,0
11.08.2018 15:00:00 24,6 3,2 16 8 30 16 NNE 0,0
11.08.2018 14:00:00 24,6 5,9 14 8 24 13 NNE -
11.08.2018 13:00:00 23,0 8,3 12 6 23 13 NNE 0,0
11.08.2018 12:00:00 21,0 9,9 15 8 25 14 NNE 0,0
11.08.2018 11:00:00 18,7 10,3 16 8 26 14 NNE 0,0
11.08.2018 10:00:00 16,5 12,4 17 9 27 14 NNE 0,0
11.08.2018 09:00:00 15,7 12,2 17 9 25 14 NNE 0,0
11.08.2018 08:00:00 15,5 12,4 16 8 25 13 NNE -
11.08.2018 07:00:00 15,6 12,3 17 9 26 14 NNE 0,0
11.08.2018 06:00:00 15,7 12,4 18 10 28 15 NNE 0,0
11.08.2018 05:00:00 15,7 11,9 19 10 29 16 NNE 0,0
11.08.2018 04:00:00 15,9 10,0 18 10 26 14 NNE 0,0
11.08.2018 03:00:00 16,6 7,8 12 7 22 12 NNE 0,0
11.08.2018 02:00:00 18,0 8,0 13 7 28 15 NNE -
11.08.2018 01:00:00 19,0 3,6 11 6 19 11 NNE 0,0
11.08.2018 00:00:00 19,4 3,0 3 2 5 3 NNE 0,0
10.08.2018 23:00:00 20,1 3,8 3 1 6 3 NNE 0,0
10.08.2018 22:00:00 19,9 3,2 0 0 0 0 N 0,0
10.08.2018 21:00:00 22,2 3,2 0 0 8 4 N 0,0
10.08.2018 20:00:00 23,5 3,9 5 3 18 10 NE -
10.08.2018 19:00:00 24,4 3,6 6 3 19 11 NNE 0,0
10.08.2018 18:00:00 24,0 2,7 9 5 24 13 NNE 0,0
10.08.2018 17:00:00 23,5 3,9 12 7 31 17 NNE 0,0
10.08.2018 16:00:00 22,1 5,1 14 8 27 15 NNE 0,0
10.08.2018 15:00:00 21,7 6,7 16 9 31 17 NNE 0,0
10.08.2018 14:00:00 20,7 7,3 14 8 33 18 NNE -
10.08.2018 13:00:00 18,9 7,3 16 9 34 18 NNE 0,0
10.08.2018 12:00:00 17,9 7,0 22 12 34 18 NNE 0,0
10.08.2018 11:00:00 15,8 5,1 16 9 29 16 NNE 0,0
10.08.2018 10:00:00 14,7 2,9 16 9 30 16 NNE 0,0
10.08.2018 09:00:00 14,7 2,5 15 8 23 12 NNE 0,0
10.08.2018 08:00:00 12,4 1,1 14 7 23 12 NNE -
10.08.2018 07:00:00 13,4 0,4 11 6 19 11 NNE 0,0
10.08.2018 06:00:00 12,5 0,2 10 6 16 8 NNE 0,0
10.08.2018 05:00:00 11,7 -0,5 9 5 13 7 NNE 0,0
10.08.2018 04:00:00 11,7 -1,2 10 5 11 6 NNE 0,0
10.08.2018 03:00:00 13,2 0,0 5 3 11 6 NNE 0,0
10.08.2018 02:00:00 11,9 -0,3 8 4 14 7 NNE -
10.08.2018 01:00:00 12,1 -1,2 10 5 14 8 NNE 0,0
10.08.2018 00:00:00 13,6 -1,2 9 5 22 12 NNE 0,0
09.08.2018 23:00:00 14,2 -2,2 17 9 27 14 NNE 0,0
09.08.2018 22:00:00 16,0 -4,2 22 12 35 19 NNE 0,0
09.08.2018 21:00:00 18,4 -3,0 23 12 36 20 NNE 0,0
09.08.2018 20:00:00 19,5 -2,7 23 12 41 22 NNE -
09.08.2018 19:00:00 20,1 -2,2 26 14 40 22 NNE 0,0
09.08.2018 18:00:00 20,4 -1,4 22 12 42 23 NNE 0,0
09.08.2018 17:00:00 21,5 0,6 22 12 43 23 NNE 0,0
09.08.2018 16:00:00 20,3 1,3 22 12 40 21 NNE 0,0
09.08.2018 15:00:00 17,8 0,4 26 14 43 23 NNE 0,0
09.08.2018 14:00:00 17,7 2,5 29 15 46 25 NNE -
09.08.2018 13:00:00 15,4 3,2 26 14 41 22 NNE 0,0
09.08.2018 12:00:00 14,2 4,5 24 13 35 19 NNE 0,0
09.08.2018 11:00:00 12,6 5,0 24 13 37 20 NNE 0,0
09.08.2018 10:00:00 11,3 5,0 26 14 38 20 NNE 0,0
09.08.2018 09:00:00 10,3 6,4 26 14 39 21 NNE 0,0
09.08.2018 08:00:00 9,7 6,8 27 15 43 23 NNE -
09.08.2018 07:00:00 10,1 7,0 31 17 46 25 NNE 0,0
09.08.2018 06:00:00 10,7 6,8 29 15 43 23 NNE 0,0
09.08.2018 05:00:00 11,3 6,8 31 17 48 26 NNE 0,0
09.08.2018 04:00:00 11,6 5,6 32 17 44 24 NNE 0,0
09.08.2018 03:00:00 12,4 3,4 29 16 42 23 NNE 0,0
09.08.2018 02:00:00 13,5 2,1 29 16 43 23 NNE -
09.08.2018 01:00:00 15,0 1,5 27 15 41 22 NNE 0,0
09.08.2018 00:00:00 16,9 0,0 14 8 22 12 NNE 0,0
08.08.2018 23:00:00 19,5 0,4 16 9 26 14 NNE 0,0

tt = Température de l'air
td = dewpoint
ff = Vitesse du vent
fx = gusts
dd = Direction du vent
rr = Quantités de précipitations

stations d'obs. à proximité